Time;durP1;ratioP1;P1;durP2;ratioP2;P2;SDS_P1;SDS_P2;PMS_P1;PMS_P2;Temp;Humidity;BMP_temperature;BMP_pressure;BME280_temperature;BME280_humidity;BME280_pressure;Samples;Min_cycle;Max_cycle;Signal;HPM_P1;HPM_P2
2022/03/27 00:01:35;;;;;;;7.95;7.25;;;13.80;99.90;;;14.13;78.30;103115.06;5074714;28;20079;-63
2022/03/27 00:04:04;;;;;;;8.45;7.30;;;13.80;99.90;;;14.11;78.13;103116.81;5074846;28;20058;-62
2022/03/27 00:06:32;;;;;;;7.53;6.93;;;13.80;99.90;;;14.17;78.23;103120.44;5074569;28;20060;-62
2022/03/27 00:09:01;;;;;;;8.20;7.43;;;13.80;99.90;;;14.19;77.79;103124.03;5073503;28;20063;-62
2022/03/27 00:11:29;;;;;;;8.02;7.25;;;13.80;99.90;;;14.12;77.99;103127.47;5074845;28;20052;-62
2022/03/27 00:14:01;;;;;;;7.85;7.07;;;13.80;99.90;;;14.19;77.70;103133.78;5074722;28;20102;-62
2022/03/27 00:16:30;;;;;;;7.57;6.80;;;13.80;99.90;;;14.28;77.74;103120.69;5074802;28;20114;-62
2022/03/27 00:18:59;;;;;;;7.78;7.03;;;13.90;99.90;;;14.14;77.65;103096.44;5074386;28;20055;-62
2022/03/27 00:21:28;;;;;;;7.75;6.82;;;13.90;99.90;;;14.33;77.36;103121.63;5074333;28;20044;-62
2022/03/27 00:23:57;;;;;;;7.60;6.90;;;14.00;99.90;;;14.30;77.50;103117.16;5074476;28;20076;-62
2022/03/27 00:26:25;;;;;;;7.72;7.03;;;14.00;99.90;;;14.18;77.84;103121.34;5074443;28;20044;-62
2022/03/27 00:28:54;;;;;;;8.05;7.22;;;13.90;99.90;;;14.18;77.95;103111.59;5074431;28;20033;-62
2022/03/27 00:31:25;;;;;;;8.00;7.30;;;13.90;99.90;;;14.12;77.91;103106.19;5074507;28;20041;-62
2022/03/27 00:33:53;;;;;;;9.10;7.40;;;13.80;99.90;;;14.20;78.03;103112.53;5074119;28;20567;-62
2022/03/27 00:36:21;;;;;;;8.27;7.45;;;13.90;99.90;;;14.21;78.05;103116.06;5074163;28;20318;-62
2022/03/27 00:38:50;;;;;;;8.70;7.88;;;13.90;99.90;;;13.87;78.71;103113.69;5074126;28;20102;-62
2022/03/27 00:41:19;;;;;;;7.75;7.13;;;13.70;99.90;;;13.86;78.61;103111.91;5074188;28;20354;-62
2022/03/27 00:43:48;;;;;;;7.80;7.10;;;13.60;99.90;;;13.58;79.76;103122.03;5074465;28;20122;-62
2022/03/27 00:46:16;;;;;;;7.95;7.25;;;13.30;99.90;;;13.78;79.63;103113.53;5073944;28;20080;-62
2022/03/27 00:48:46;;;;;;;7.97;7.28;;;13.40;99.90;;;13.79;79.30;103115.31;5073534;28;20045;-62
2022/03/27 00:51:15;;;;;;;7.80;7.10;;;13.50;99.90;;;13.82;79.22;103120.72;5072950;28;20445;-62
2022/03/27 00:53:43;;;;;;;8.27;7.47;;;13.50;99.90;;;13.93;78.72;103120.03;5073684;28;20644;-62
2022/03/27 00:56:12;;;;;;;7.70;7.00;;;13.50;99.90;;;13.76;78.75;103117.94;5072440;28;20041;-62
2022/03/27 00:58:40;;;;;;;8.63;7.82;;;13.50;99.90;;;13.69;79.76;103119.56;5073910;28;20071;-62
2022/03/27 01:01:17;;;;;;;8.40;7.60;;;13.40;99.90;;;13.46;79.88;103116.47;5074059;28;20048;-63
2022/03/27 01:03:49;;;;;;;10.18;7.90;;;13.30;99.90;;;12.70;82.17;103113.00;5074110;28;20140;-62
2022/03/27 01:06:34;;;;;;;9.00;8.00;;;12.70;99.90;;;12.32;85.37;103113.88;5073712;28;20048;-62
2022/03/27 01:11:53;;;;;;;9.63;8.52;;;12.30;99.90;;;12.94;84.65;103113.56;5073293;28;20040;-62
2022/03/27 01:14:28;;;;;;;9.52;8.63;;;12.50;99.90;;;13.06;83.93;103119.19;5073206;28;20409;-62
2022/03/27 01:17:02;;;;;;;9.35;8.45;;;12.60;99.90;;;13.16;83.73;103107.84;5073489;28;20122;-62
2022/03/27 01:19:32;;;;;;;9.90;8.63;;;12.70;99.90;;;13.15;83.10;103107.84;5073432;28;20056;-63
2022/03/27 01:22:02;;;;;;;9.60;8.70;;;12.80;99.90;;;12.89;84.35;103109.88;5073166;28;20041;-61
2022/03/27 01:24:31;;;;;;;10.32;9.23;;;12.60;99.90;;;12.85;84.28;103089.47;5073329;28;20075;-62
2022/03/27 01:26:59;;;;;;;9.90;8.95;;;12.60;99.90;;;12.85;84.11;103089.47;5071877;28;20441;-62
2022/03/27 01:29:28;;;;;;;14.18;10.07;;;12.60;99.90;;;12.91;83.91;103101.97;5072938;28;20067;-62
2022/03/27 01:31:58;;;;;;;10.98;9.93;;;12.60;99.90;;;12.50;85.43;103103.69;5072852;28;20086;-64
2022/03/27 01:34:26;;;;;;;10.40;9.30;;;12.30;99.90;;;12.71;85.67;103104.19;5072765;28;20040;-62
2022/03/27 01:36:55;;;;;;;10.57;9.45;;;12.30;99.90;;;12.55;85.98;103104.69;5073078;28;20032;-62
2022/03/27 01:39:24;;;;;;;10.75;9.65;;;12.20;99.90;;;12.58;85.56;103092.38;5072850;28;20113;-62
2022/03/27 01:41:53;;;;;;;11.07;9.98;;;12.30;99.90;;;12.51;86.30;103089.56;5071571;28;20084;-62
2022/03/27 01:44:21;;;;;;;11.95;10.75;;;12.20;99.90;;;12.70;85.59;103089.09;5072930;28;20126;-62
2022/03/27 01:46:50;;;;;;;11.20;10.10;;;12.30;99.90;;;12.82;84.87;103097.34;5072816;28;20086;-62
2022/03/27 01:49:19;;;;;;;11.60;10.43;;;12.50;99.90;;;12.86;84.17;103099.22;5072595;28;20123;-63
2022/03/27 01:51:48;;;;;;;11.52;10.43;;;12.50;99.90;;;12.83;83.72;103099.16;5072523;28;20056;-62
2022/03/27 01:54:19;;;;;;;11.30;10.20;;;12.60;99.90;;;12.68;83.62;103088.16;5072480;28;20083;-62
2022/03/27 01:56:48;;;;;;;11.98;10.40;;;12.40;99.90;;;12.77;83.62;103093.72;5072482;28;20055;-62
2022/03/27 01:59:19;;;;;;;11.52;10.38;;;12.50;99.90;;;12.78;83.54;103092.84;5072519;28;20071;-62
2022/03/27 02:01:47;;;;;;;12.10;10.95;;;12.50;99.90;;;12.47;83.74;103088.59;5072490;28;20102;-62
2022/03/27 02:04:16;;;;;;;12.02;10.80;;;12.30;99.90;;;12.61;84.30;103091.56;5072934;28;20090;-62
2022/03/27 02:06:45;;;;;;;13.85;11.23;;;12.30;99.90;;;12.60;84.45;103084.47;5072361;28;20074;-62
2022/03/27 02:09:13;;;;;;;12.65;11.40;;;12.30;99.90;;;12.67;84.19;103097.00;5072471;28;20120;-62
2022/03/27 02:11:43;;;;;;;12.98;11.68;;;12.40;99.90;;;12.76;83.81;103091.91;5072510;28;20536;-62
2022/03/27 02:14:13;;;;;;;13.35;11.18;;;12.40;99.90;;;12.85;83.42;103104.50;5072756;28;20037;-62
2022/03/27 02:16:42;;;;;;;13.15;11.80;;;12.50;99.90;;;12.92;83.22;103099.34;5072356;28;20048;-64
2022/03/27 02:19:12;;;;;;;12.57;11.20;;;12.60;99.90;;;13.05;82.28;103101.44;5072286;28;20102;-62
2022/03/27 02:21:43;;;;;;;12.32;10.93;;;12.70;99.90;;;13.08;81.84;103101.53;5072058;28;20135;-63
2022/03/27 02:24:11;;;;;;;;;;;12.70;99.90;;;13.04;81.21;103094.34;5072446;28;20049;-62
2022/03/27 02:26:45;;;;;;;11.43;10.30;;;12.80;99.90;;;12.93;81.06;103087.84;5071942;28;19956;-63
2022/03/27 02:29:16;;;;;;;12.57;11.27;;;12.70;99.90;;;12.99;80.78;103097.75;5071855;28;20189;-62
2022/03/27 02:31:45;;;;;;;12.95;11.65;;;12.60;99.90;;;12.91;80.96;103097.53;5071813;28;20061;-62
2022/03/27 02:34:15;;;;;;;13.18;11.80;;;12.60;99.90;;;12.86;81.16;103093.91;5071814;28;20045;-62
2022/03/27 02:36:44;;;;;;;13.03;11.73;;;12.60;99.90;;;12.79;81.17;103080.47;5071680;28;20040;-63
2022/03/27 02:39:12;;;;;;;12.65;11.35;;;12.60;99.90;;;12.64;81.82;103078.34;5071920;28;20067;-63
2022/03/27 02:41:46;;;;;;;13.18;11.80;;;12.40;99.90;;;12.58;81.89;103076.44;5071675;28;20114;-62
2022/03/27 02:44:16;;;;;;;13.13;11.73;;;12.30;99.90;;;12.68;81.73;103083.75;5070554;28;20049;-63
2022/03/27 02:46:45;;;;;;;14.40;12.90;;;12.40;99.90;;;12.75;81.59;103082.16;5071887;28;20064;-63
2022/03/27 02:49:13;;;;;;;13.55;12.20;;;12.50;99.90;;;12.76;81.53;103081.28;5071558;28;20047;-62
2022/03/27 02:51:44;;;;;;;14.13;12.73;;;12.50;99.90;;;12.72;81.58;103079.41;5071914;28;20036;-63
2022/03/27 02:54:13;;;;;;;13.27;11.88;;;12.50;99.90;;;12.67;81.51;103078.44;5071615;28;20048;-63
2022/03/27 02:56:41;;;;;;;13.32;11.77;;;12.40;99.90;;;12.62;81.72;103080.97;5071705;28;20043;-62
2022/03/27 02:59:10;;;;;;;15.73;12.63;;;12.30;99.90;;;11.67;84.73;103069.78;5071572;28;20040;-63
2022/03/27 03:01:40;;;;;;;14.05;12.63;;;11.70;99.90;;;12.04;84.90;103075.13;5070465;28;20497;-64
2022/03/27 03:04:09;;;;;;;14.93;12.82;;;11.70;99.90;;;11.40;84.33;102953.25;5071575;28;20041;-63
2022/03/27 03:06:38;;;;;;;14.32;12.70;;;11.80;99.90;;;12.20;84.35;103079.97;5071752;28;20072;-62
2022/03/27 03:09:07;;;;;;;14.60;13.10;;;11.90;99.90;;;11.90;85.50;103075.66;5071760;28;20045;-62
2022/03/27 03:11:35;;;;;;;14.02;12.50;;;11.60;99.90;;;12.13;85.00;103082.44;5071370;28;20131;-63
2022/03/27 03:14:04;;;;;;;14.93;13.43;;;11.70;99.90;;;12.21;84.46;103073.81;5074589;28;20056;-63
2022/03/27 03:16:54;;;;;;;14.23;12.82;;;11.90;99.90;;;12.27;84.24;103065.09;5075511;28;20127;-63
2022/03/27 03:19:24;;;;;;;14.00;12.50;;;11.90;99.90;;;12.21;83.64;103071.16;5075630;28;20040;-63
2022/03/27 03:21:53;;;;;;;14.05;12.55;;;12.00;99.90;;;12.26;83.45;103069.50;5075475;28;20044;-62
2022/03/27 03:24:21;;;;;;;14.18;12.75;;;12.00;99.90;;;12.27;83.27;103075.72;5091177;28;20451;-62
2022/03/27 03:26:49;;;;;;;16.38;14.07;;;11.90;99.90;;;11.91;83.12;103057.13;5075418;28;20040;-62
2022/03/27 03:29:18;;;;;;;14.68;13.20;;;11.80;99.90;;;12.06;83.98;103075.19;5076018;28;20075;-62
2022/03/27 03:31:46;;;;;;;14.45;12.95;;;11.70;99.90;;;12.11;83.67;103063.84;5075715;28;20051;-62
2022/03/27 03:34:16;;;;;;;15.93;14.32;;;11.80;99.90;;;12.20;83.84;103065.78;5075190;28;20064;-62
2022/03/27 03:36:45;;;;;;;15.35;13.75;;;11.80;99.90;;;11.94;83.79;103066.94;5075086;28;20118;-62
2022/03/27 03:39:14;;;;;;;15.05;13.48;;;11.80;99.90;;;11.80;85.07;103069.22;5075239;28;20056;-62
2022/03/27 03:41:42;;;;;;;15.65;13.88;;;11.50;99.90;;;11.28;86.49;103063.34;5075596;28;20048;-62
2022/03/27 03:44:24;;;;;;;14.35;12.68;;;11.10;99.90;;;10.34;90.46;103062.25;5074982;28;20119;-62
2022/03/27 03:46:53;;;;;;;14.75;13.25;;;10.40;99.90;;;10.85;90.78;103069.16;5075026;28;20036;-62
2022/03/27 03:49:24;;;;;;;14.50;13.02;;;10.50;99.90;;;11.16;89.86;103063.00;5075027;28;20041;-63
2022/03/27 03:51:53;;;;;;;15.77;14.15;;;10.70;99.90;;;11.37;88.85;103056.53;5075172;28;20076;-62
2022/03/27 03:54:21;;;;;;;15.50;13.90;;;10.90;99.90;;;11.35;87.65;103063.56;5075084;28;20119;-62
2022/03/27 03:56:50;;;;;;;14.68;13.23;;;11.10;99.90;;;11.08;88.76;103051.28;5074590;28;20040;-62
2022/03/27 03:59:19;;;;;;;15.68;13.85;;;10.80;99.90;;;11.33;88.22;103057.31;5074576;28;20043;-61
2022/03/27 04:01:57;;;;;;;14.73;13.23;;;11.00;99.90;;;11.52;87.43;103056.94;5074690;28;20048;-62
2022/03/27 04:04:30;;;;;;;14.23;12.85;;;11.10;99.90;;;11.55;86.74;103057.06;5074439;28;20036;-61
2022/03/27 04:06:58;;;;;;;14.27;12.88;;;11.20;99.90;;;11.58;86.46;103061.50;5074943;28;20083;-62
2022/03/27 04:09:27;;;;;;;15.18;13.68;;;11.30;99.90;;;11.78;85.96;103065.63;5074701;28;20040;-61
2022/03/27 04:11:56;;;;;;;17.15;15.38;;;11.50;99.90;;;11.07;86.45;103037.13;5074893;28;20056;-61
2022/03/27 04:14:24;;;;;;;15.27;13.77;;;11.10;99.90;;;10.73;87.40;102950.56;5074463;28;20155;-62
2022/03/27 04:16:53;;;;;;;17.05;15.15;;;11.00;99.90;;;11.45;87.18;103062.06;5074192;28;20036;-62
2022/03/27 04:19:22;;;;;;;16.58;14.77;;;11.10;99.90;;;11.52;86.61;103067.56;5074182;28;20490;-62
2022/03/27 04:21:51;;;;;;;16.27;14.57;;;11.20;99.90;;;11.53;87.00;103058.75;5074151;28;20057;-62
2022/03/27 04:24:20;;;;;;;16.25;14.55;;;11.20;99.90;;;11.74;86.13;103058.47;5074176;28;20120;-61
2022/03/27 04:26:48;;;;;;;15.52;14.02;;;11.40;99.90;;;11.82;85.65;103054.25;5074135;28;20465;-61
2022/03/27 04:29:17;;;;;;;16.35;14.57;;;11.50;99.90;;;11.94;84.98;103057.22;5074116;28;20072;-61
2022/03/27 04:31:45;;;;;;;16.52;14.65;;;11.60;99.90;;;11.95;84.51;103061.66;5074347;28;20050;-62
2022/03/27 04:34:14;;;;;;;18.13;14.90;;;11.60;99.90;;;11.98;84.22;103066.16;5074215;28;20045;-62
2022/03/27 04:36:42;;;;;;;16.73;14.93;;;11.70;99.90;;;12.05;84.01;103063.69;5073895;28;20488;-62
2022/03/27 04:39:12;;;;;;;16.35;14.02;;;11.70;99.90;;;12.11;83.60;103069.13;5074160;28;20108;-62
2022/03/27 04:41:40;;;;;;;17.48;15.50;;;11.80;99.90;;;11.94;83.31;103040.41;5074241;28;20079;-62
2022/03/27 04:44:09;;;;;;;17.13;15.32;;;11.80;99.90;;;12.16;83.15;103070.13;5072755;28;20047;-62
2022/03/27 04:46:38;;;;;;;17.25;15.40;;;11.80;99.90;;;12.05;82.84;103047.75;5074196;28;20048;-62
2022/03/27 04:49:06;;;;;;;16.85;15.15;;;11.80;99.90;;;12.23;82.69;103072.06;5073760;28;20053;-64
2022/03/27 04:51:35;;;;;;;17.17;15.38;;;11.90;99.90;;;12.10;82.38;103050.53;5073812;28;20519;-62
2022/03/27 04:54:04;;;;;;;17.05;15.25;;;11.90;99.90;;;12.21;82.24;103075.56;5073797;28;20047;-62
2022/03/27 04:56:33;;;;;;;16.02;14.32;;;11.90;99.90;;;12.29;82.13;103080.19;5073670;28;20098;-63
2022/03/27 04:59:02;;;;;;;20.20;15.60;;;11.90;99.90;;;12.09;81.70;103062.00;5073780;28;20048;-63
2022/03/27 05:01:30;;;;;;;15.13;13.52;;;11.90;99.90;;;12.17;81.16;103081.66;5074270;28;20115;-61
2022/03/27 05:03:59;;;;;;;14.93;13.32;;;11.80;99.90;;;11.92;81.26;103090.75;5074003;28;20041;-61
2022/03/27 05:06:29;;;;;;;15.50;13.68;;;11.70;99.90;;;11.93;81.16;103081.94;5072798;28;20414;-62
2022/03/27 05:08:58;;;;;;;16.90;15.00;;;11.60;99.90;;;11.50;82.17;103079.88;5073660;28;20053;-62
2022/03/27 05:11:28;;;;;;;18.77;15.40;;;11.30;99.90;;;10.95;84.37;103083.56;5073582;28;20117;-61
2022/03/27 05:13:58;;;;;;;18.77;15.38;;;10.90;99.90;;;11.29;84.58;103078.38;5073287;28;20044;-62
2022/03/27 05:16:27;;;;;;;18.50;15.25;;;11.00;99.90;;;11.51;84.35;103079.03;5073262;28;20040;-62
2022/03/27 05:18:55;;;;;;;19.25;15.23;;;11.10;99.90;;;11.63;83.99;103081.97;5073234;28;20051;-62
2022/03/27 05:21:25;;;;;;;16.42;14.00;;;11.30;99.90;;;11.69;83.61;103086.63;5073191;28;20109;-62
2022/03/27 05:23:54;;;;;;;14.80;13.20;;;11.30;99.90;;;11.70;83.07;103085.75;5073064;28;20274;-63
2022/03/27 05:26:22;;;;;;;13.80;11.98;;;11.40;99.90;;;11.65;82.31;103066.16;5073240;28;20071;-62
2022/03/27 05:28:51;;;;;;;14.00;12.50;;;11.50;99.90;;;11.41;81.89;103012.47;5071552;28;20048;-62
2022/03/27 05:31:21;;;;;;;12.23;10.93;;;11.50;99.90;;;11.85;81.47;103075.53;5072932;28;20084;-62
2022/03/27 05:33:49;;;;;;;13.57;12.18;;;11.50;99.90;;;11.88;80.86;103085.31;5072976;28;20550;-62
2022/03/27 05:36:18;;;;;;;14.32;12.30;;;11.60;99.90;;;11.70;80.74;103084.00;5072240;28;20127;-62
2022/03/27 05:38:46;;;;;;;14.30;12.48;;;11.40;99.90;;;11.63;80.98;103078.47;5072675;28;20536;-61
2022/03/27 05:41:14;;;;;;;15.98;13.63;;;11.40;99.90;;;11.46;80.88;103051.47;5072998;28;20091;-61
2022/03/27 05:43:43;;;;;;;14.25;12.75;;;11.40;99.90;;;11.60;81.07;103071.31;5072728;28;20489;-61
2022/03/27 05:46:11;;;;;;;13.80;11.93;;;11.30;99.90;;;11.70;80.94;103078.69;5072584;28;20040;-62
2022/03/27 05:48:41;;;;;;;14.88;13.27;;;11.40;99.90;;;11.69;81.12;103076.00;5072871;28;20051;-61
2022/03/27 05:51:09;;;;;;;14.60;13.10;;;11.40;99.90;;;11.52;81.21;103059.59;5071559;28;20545;-61
2022/03/27 05:53:38;;;;;;;14.18;12.68;;;11.30;99.90;;;11.66;81.19;103074.16;5072546;28;20383;-61
2022/03/27 05:56:06;;;;;;;14.27;12.63;;;11.40;99.90;;;11.66;81.28;103074.16;5072498;28;20072;-62
2022/03/27 05:58:37;;;;;;;13.48;12.07;;;11.30;99.90;;;11.74;80.99;103075.28;5072258;28;20486;-61
2022/03/27 06:01:05;;;;;;;;;;;11.40;99.90;;;11.75;81.04;103073.50;5073349;28;20044;-62
2022/03/27 06:03:34;;;;;;;14.15;12.43;;;11.50;99.90;;;11.73;80.95;103078.75;5088149;28;19920;-62
2022/03/27 06:06:05;;;;;;;13.77;12.32;;;11.50;99.90;;;11.70;80.72;103080.44;5072609;28;20051;-61
2022/03/27 06:08:33;;;;;;;12.98;11.65;;;11.40;99.90;;;11.73;80.67;103083.16;5072386;28;20040;-62
2022/03/27 06:11:02;;;;;;;13.25;11.77;;;11.40;99.90;;;11.71;80.66;103079.59;5072513;28;20068;-63
2022/03/27 06:13:30;;;;;;;13.20;11.18;;;11.40;99.90;;;11.61;80.46;103085.47;5072738;28;20068;-62
2022/03/27 06:15:58;;;;;;;13.88;12.27;;;11.40;99.90;;;11.53;80.46;103103.81;5072087;28;20462;-61
2022/03/27 06:18:27;;;;;;;12.70;11.50;;;11.40;99.90;;;11.50;80.42;103106.38;5072395;28;20056;-61
2022/03/27 06:20:55;;;;;;;13.05;11.70;;;11.30;99.90;;;11.42;80.69;103084.06;5072602;28;20083;-61
2022/03/27 06:23:25;;;;;;;13.23;11.82;;;11.20;99.90;;;11.47;80.61;103101.00;5072232;28;20040;-61
2022/03/27 06:25:53;;;;;;;13.30;11.90;;;11.20;99.90;;;11.56;80.54;103113.59;5070953;28;20101;-61
2022/03/27 06:28:22;;;;;;;13.57;12.25;;;11.30;99.90;;;11.60;80.20;103108.44;5071891;28;20132;-61
2022/03/27 06:30:50;;;;;;;13.93;12.02;;;11.30;99.90;;;11.64;80.01;103118.25;5071792;28;20552;-61
2022/03/27 06:33:18;;;;;;;12.80;11.50;;;11.30;99.90;;;11.62;79.75;103116.41;5072039;28;20126;-62
2022/03/27 06:35:47;;;;;;;13.43;12.02;;;11.30;99.90;;;11.51;79.55;103118.78;5071798;28;20078;-62
2022/03/27 06:38:17;;;;;;;13.48;12.18;;;11.20;99.90;;;11.58;79.50;103119.84;5071720;28;20131;-61
2022/03/27 06:40:47;;;;;;;13.00;11.70;;;11.30;99.90;;;11.52;79.40;103123.22;5071546;28;20056;-62
2022/03/27 06:43:15;;;;;;;12.35;11.05;;;11.20;99.90;;;10.82;81.94;103117.63;5071947;28;20076;-62
2022/03/27 06:45:44;;;;;;;12.63;11.40;;;10.70;99.90;;;11.14;81.63;103108.00;5071653;28;20116;-62
2022/03/27 06:48:12;;;;;;;12.80;11.60;;;10.80;99.90;;;11.26;81.33;103110.09;5070790;28;20036;-62
2022/03/27 06:50:41;;;;;;;12.50;11.30;;;10.90;99.90;;;11.23;80.61;103113.53;5070377;28;20044;-61
2022/03/27 06:53:09;;;;;;;12.70;11.45;;;10.90;99.90;;;11.04;80.42;103103.28;5071572;28;20159;-63
2022/03/27 06:55:38;;;;;;;13.73;11.85;;;10.90;99.90;;;11.00;80.40;103100.47;5071492;28;20072;-61
2022/03/27 06:58:08;;;;;;;13.07;11.77;;;10.80;99.90;;;11.03;80.85;103112.09;5071331;28;20072;-62
2022/03/27 07:03:22;;;;;;;11.88;10.77;;;10.70;99.90;;;11.05;80.24;103109.47;5071742;28;20044;-62
2022/03/27 07:05:51;;;;;;;13.23;11.93;;;10.80;99.90;;;10.69;80.66;103111.88;5071400;28;20418;-61
2022/03/27 07:08:21;;;;;;;13.75;12.07;;;10.50;99.90;;;10.93;80.67;103101.16;5071278;28;20483;-62
2022/03/27 07:10:51;;;;;;;13.82;12.30;;;10.60;99.90;;;11.04;79.98;103107.66;5071491;28;20044;-62
2022/03/27 07:13:21;;;;;;;14.55;13.07;;;10.70;99.90;;;11.09;79.39;103121.97;5070381;28;20064;-62
2022/03/27 07:15:50;;;;;;;15.25;13.65;;;10.80;99.90;;;10.89;79.04;103116.97;5071272;28;20405;-62
2022/03/27 07:18:20;;;;;;;16.45;14.73;;;10.70;99.90;;;10.83;79.55;103105.28;5071118;28;20051;-62
2022/03/27 07:20:48;;;;;;;16.95;14.80;;;10.60;99.90;;;10.07;80.10;103086.03;5071566;28;20106;-63
2022/03/27 07:23:20;;;;;;;18.80;16.55;;;10.30;99.90;;;9.89;83.24;103109.22;5071415;28;20374;-62
2022/03/27 07:25:52;;;;;;;18.20;16.08;;;9.70;99.90;;;10.43;83.00;103110.19;5071171;28;20482;-62
2022/03/27 07:28:24;;;;;;;18.25;16.27;;;10.00;99.90;;;10.75;81.89;103110.34;5071230;28;20059;-62
2022/03/27 07:30:53;;;;;;;18.83;16.80;;;10.40;99.90;;;10.94;80.73;103101.19;5071304;28;20044;-63
2022/03/27 07:33:21;;;;;;;18.40;16.10;;;10.60;99.90;;;11.22;79.68;103105.56;5070127;28;20040;-62
2022/03/27 07:35:50;;;;;;;17.88;15.98;;;10.90;99.90;;;11.49;78.94;103094.00;5071085;28;20078;-63
2022/03/27 07:38:18;;;;;;;17.60;15.68;;;11.20;99.90;;;11.10;77.91;103097.25;5071167;28;20067;-63
2022/03/27 07:40:47;;;;;;;18.20;16.30;;;11.10;99.90;;;10.48;81.22;103103.28;5071173;28;20056;-62
2022/03/27 07:43:16;;;;;;;18.75;16.33;;;10.40;99.90;;;11.16;81.51;103093.03;5071682;28;20044;-63
2022/03/27 07:45:46;;;;;;;16.90;15.13;;;10.70;99.90;;;11.39;79.26;103022.13;5070791;28;20064;-64
2022/03/27 07:48:14;;;;;;;17.27;15.37;;;11.30;99.90;;;12.27;76.50;103112.88;5071213;28;20071;-64
2022/03/27 07:50:44;;;;;;;17.50;15.38;;;11.80;99.90;;;12.62;74.83;103107.53;5071209;28;20359;-64
2022/03/27 07:53:12;;;;;;;16.13;14.43;;;12.20;99.90;;;12.92;72.82;103109.97;5071158;28;20497;-63
2022/03/27 07:55:41;;;;;;;15.40;13.73;;;12.60;99.90;;;13.00;71.22;103099.50;5069949;28;20045;-64
2022/03/27 07:58:09;;;;;;;14.40;13.00;;;12.70;99.90;;;13.36;70.09;103118.91;5071004;28;20045;-65
2022/03/27 08:00:37;;;;;;;13.88;12.48;;;13.00;99.90;;;13.50;69.08;103115.69;5090073;28;20060;-64
2022/03/27 08:03:08;;;;;;;14.45;12.95;;;13.30;99.90;;;13.52;68.39;103115.69;5074991;28;20135;-63
2022/03/27 08:05:37;;;;;;;14.05;12.52;;;13.20;99.90;;;13.64;67.51;103120.34;5075366;28;20402;-65
2022/03/27 08:08:06;;;;;;;12.70;11.40;;;13.30;99.90;;;13.70;64.83;103115.16;5075080;28;20482;-65
2022/03/27 08:10:35;;;;;;;17.13;11.82;;;13.40;99.90;;;12.98;64.34;103114.53;5074595;28;20071;-65
2022/03/27 08:13:03;;;;;;;13.50;12.20;;;13.00;99.90;;;13.55;64.06;103121.06;5074652;28;20068;-65
2022/03/27 08:15:32;;;;;;;14.98;12.45;;;13.20;99.90;;;13.67;63.01;103123.97;5074541;28;20062;-64
2022/03/27 08:18:00;;;;;;;14.10;11.85;;;13.40;99.90;;;13.99;62.93;103127.22;5074350;28;20140;-63
2022/03/27 08:20:30;;;;;;;12.65;11.35;;;13.60;99.90;;;12.41;64.00;103119.38;5074970;28;20074;-64
2022/03/27 08:22:59;;;;;;;11.90;10.70;;;12.70;99.90;;;12.74;63.78;103114.88;5074579;28;20425;-68
2022/03/27 08:28:14;;;;;;;11.18;9.35;;;12.80;99.90;;;13.19;61.35;103115.91;5074212;28;20098;-64
2022/03/27 08:30:43;;;;;;;12.98;9.80;;;12.90;99.90;;;13.51;58.19;103124.56;5074296;28;20044;-65
2022/03/27 08:33:12;;;;;;;11.07;8.55;;;13.20;99.90;;;13.80;57.76;103114.47;5073968;28;20056;-65
2022/03/27 08:35:42;;;;;;;10.55;9.40;;;13.40;99.90;;;14.14;56.14;103122.16;5073819;28;20049;-63
2022/03/27 08:38:12;;;;;;;9.38;8.48;;;13.70;99.90;;;14.21;53.65;103116.06;5073896;28;20106;-64
2022/03/27 08:40:41;;;;;;;10.20;9.20;;;14.00;99.90;;;14.30;52.17;103100.28;5073830;28;20561;-57
2022/03/27 08:43:12;;;;;;;12.57;7.90;;;14.10;99.90;;;13.49;51.35;103113.00;5074080;28;20125;-57
2022/03/27 08:45:42;;;;;;;10.05;7.60;;;13.60;99.90;;;13.73;49.53;103112.53;5073672;28;20072;-57
2022/03/27 08:48:11;;;;;;;9.97;7.80;;;13.50;99.90;;;14.17;49.27;103112.47;5074465;28;20135;-57
2022/03/27 08:50:51;;;;;;;10.13;7.45;;;13.80;99.90;;;14.31;46.92;103107.41;5073411;28;20343;-60
2022/03/27 08:53:30;;;;;;;8.10;6.95;;;14.00;99.90;;;14.79;46.71;103113.47;5073919;28;20067;-59
2022/03/27 08:56:06;;;;;;;8.25;6.80;;;14.50;99.90;;;15.24;46.68;103123.84;5073840;28;20055;-59
2022/03/27 08:58:37;;;;;;;8.48;7.30;;;14.80;99.90;;;15.63;46.27;103120.78;5073497;28;20049;-58
2022/03/27 09:01:07;;;;;;;8.13;6.78;;;15.30;99.90;;;15.42;42.93;103102.78;5073628;28;20048;-59
2022/03/27 09:03:36;;;;;;;9.85;7.47;;;15.40;99.90;;;15.05;44.51;103117.41;5073683;28;20045;-58
2022/03/27 09:06:08;;;;;;;7.88;7.18;;;15.00;99.90;;;15.54;46.24;103115.38;5073532;28;20044;-58
2022/03/27 09:08:38;;;;;;;9.63;7.50;;;15.10;99.90;;;16.06;45.48;103120.34;5073514;28;20110;-58
2022/03/27 09:11:08;;;;;;;8.00;7.15;;;15.60;99.90;;;16.18;43.68;103121.34;5072854;28;20044;-58
2022/03/27 09:13:38;;;;;;;8.23;7.32;;;15.90;99.90;;;14.88;43.78;103113.63;5073467;28;20432;-59
2022/03/27 09:16:08;;;;;;;8.95;8.05;;;15.00;99.90;;;14.45;47.00;103116.50;5073692;28;20071;-59
2022/03/27 09:18:47;;;;;;;11.27;8.57;;;14.40;99.90;;;14.46;47.17;103119.19;5073358;28;20044;-58
2022/03/27 09:21:21;;;;;;;9.35;8.18;;;14.20;99.90;;;14.38;48.88;103111.97;5072007;28;20057;-58
2022/03/27 09:23:58;;;;;;;8.57;7.70;;;14.00;99.90;;;15.34;48.35;103116.00;5073068;28;20460;-58
2022/03/27 09:26:27;;;;;;;9.30;7.95;;;14.70;99.90;;;15.90;46.81;103113.06;5073426;28;20375;-59
2022/03/27 09:29:09;;;;;;;8.95;8.02;;;15.40;99.90;;;16.50;45.78;103110.97;5073164;28;20071;-60
2022/03/27 09:31:38;;;;;;;10.55;8.02;;;16.00;99.90;;;16.71;45.55;103119.13;5072957;28;20036;-59
2022/03/27 09:34:07;;;;;;;10.65;8.52;;;16.30;99.90;;;17.14;45.66;103121.16;5073174;28;20036;-59
2022/03/27 09:36:43;;;;;;;9.80;8.43;;;16.80;99.90;;;17.29;43.76;103119.41;5073375;28;20383;-59
2022/03/27 09:39:16;;;;;;;9.27;8.13;;;17.10;99.90;;;17.04;44.32;103115.72;5072814;28;20060;-59
2022/03/27 09:41:47;;;;;;;7.45;6.75;;;16.90;99.90;;;15.97;42.65;103085.53;5072811;28;20079;-59
2022/03/27 09:44:25;;;;;;;9.30;7.32;;;16.30;99.90;;;15.42;43.48;103109.88;5072754;28;20552;-58
2022/03/27 09:46:58;;;;;;;7.75;6.95;;;15.40;99.90;;;15.04;43.51;103120.06;5073372;28;20094;-59
2022/03/27 09:49:43;;;;;;;7.93;7.13;;;14.90;99.90;;;15.52;45.08;103111.78;5073012;28;20076;-59
2022/03/27 09:52:15;;;;;;;11.18;7.43;;;15.00;99.90;;;16.05;46.20;103119.44;5072499;28;20106;-59
2022/03/27 09:55:03;;;;;;;9.50;7.95;;;15.50;99.90;;;16.28;44.76;103080.47;5072568;28;20036;-59
2022/03/27 09:57:33;;;;;;;9.38;8.38;;;16.10;99.90;;;16.52;45.21;103111.84;5072488;28;20052;-59
2022/03/27 10:00:18;;;;;;;10.10;8.20;;;16.20;99.90;;;17.13;44.02;103121.13;5072721;28;20094;-60
2022/03/27 10:02:48;;;;;;;7.50;6.80;;;16.70;99.90;;;16.48;43.96;103114.47;5072537;28;20082;-59
2022/03/27 10:05:18;;;;;;;8.15;6.68;;;16.30;99.90;;;16.13;41.83;103111.50;5072505;28;20479;-59
2022/03/27 10:07:50;;;;;;;9.15;7.00;;;16.10;99.90;;;15.90;44.96;103081.94;5072216;28;20094;-59
2022/03/27 10:10:20;;;;;;;8.38;6.70;;;15.80;99.90;;;16.19;44.93;103106.22;5072639;28;20456;-59
2022/03/27 10:12:51;;;;;;;6.93;6.32;;;15.80;99.90;;;15.84;42.55;103094.31;5072083;28;20152;-59
2022/03/27 10:15:23;;;;;;;8.35;7.20;;;15.70;99.90;;;15.21;44.31;103075.84;5071180;28;20048;-59
2022/03/27 10:17:57;;;;;;;7.88;7.00;;;15.20;99.90;;;15.31;45.31;103097.28;5072123;28;20040;-58
2022/03/27 10:20:29;;;;;;;8.50;7.70;;;15.00;99.90;;;15.81;45.82;103102.31;5071929;28;20466;-58
2022/03/27 10:23:04;;;;;;;8.68;6.80;;;15.40;99.90;;;15.73;45.74;103091.56;5071875;28;20378;-58
2022/03/27 10:25:39;;;;;;;8.88;7.90;;;15.40;99.90;;;16.59;45.23;103097.66;5072202;28;20456;-58